sensor_id;sensor_type;location;lat;lon;timestamp;temperature;humidity
13610;DHT22;6876;50.788;4.940;2022-08-02T00:02:16;19.10;99.90
13610;DHT22;6876;50.788;4.940;2022-08-02T00:05:06;19.10;99.90
13610;DHT22;6876;50.788;4.940;2022-08-02T00:07:54;18.90;99.90
13610;DHT22;6876;50.788;4.940;2022-08-02T00:10:41;18.80;99.90
13610;DHT22;6876;50.788;4.940;2022-08-02T00:13:28;18.60;99.90
13610;DHT22;6876;50.788;4.940;2022-08-02T00:16:16;18.50;99.90
13610;DHT22;6876;50.788;4.940;2022-08-02T00:19:03;18.50;99.90
13610;DHT22;6876;50.788;4.940;2022-08-02T00:21:51;18.70;99.90
13610;DHT22;6876;50.788;4.940;2022-08-02T00:24:39;18.70;99.90
13610;DHT22;6876;50.788;4.940;2022-08-02T00:27:26;18.60;99.90
13610;DHT22;6876;50.788;4.940;2022-08-02T00:30:13;18.50;99.90
13610;DHT22;6876;50.788;4.940;2022-08-02T00:33:00;18.50;99.90
13610;DHT22;6876;50.788;4.940;2022-08-02T00:35:49;18.50;99.90
13610;DHT22;6876;50.788;4.940;2022-08-02T00:38:38;18.50;99.90
13610;DHT22;6876;50.788;4.940;2022-08-02T00:41:25;18.50;99.90
13610;DHT22;6876;50.788;4.940;2022-08-02T00:44:13;18.60;99.90
13610;DHT22;6876;50.788;4.940;2022-08-02T00:47:00;18.60;99.90
13610;DHT22;6876;50.788;4.940;2022-08-02T00:49:47;18.40;99.90
13610;DHT22;6876;50.788;4.940;2022-08-02T00:52:35;18.30;99.90
13610;DHT22;6876;50.788;4.940;2022-08-02T00:55:23;18.30;99.90
13610;DHT22;6876;50.788;4.940;2022-08-02T00:58:11;18.20;99.90
13610;DHT22;6876;50.788;4.940;2022-08-02T01:00:58;18.20;99.90
13610;DHT22;6876;50.788;4.940;2022-08-02T01:03:46;18.20;99.90
13610;DHT22;6876;50.788;4.940;2022-08-02T01:06:34;18.20;99.90
13610;DHT22;6876;50.788;4.940;2022-08-02T01:09:22;18.10;99.90
13610;DHT22;6876;50.788;4.940;2022-08-02T01:12:10;18.10;99.90
13610;DHT22;6876;50.788;4.940;2022-08-02T01:15:00;18.10;99.90
13610;DHT22;6876;50.788;4.940;2022-08-02T01:17:51;18.00;99.90
13610;DHT22;6876;50.788;4.940;2022-08-02T01:21:04;18.00;99.90
13610;DHT22;6876;50.788;4.940;2022-08-02T01:24:03;17.90;99.90
13610;DHT22;6876;50.788;4.940;2022-08-02T01:26:59;17.90;99.90
13610;DHT22;6876;50.788;4.940;2022-08-02T01:29:52;17.90;99.90
13610;DHT22;6876;50.788;4.940;2022-08-02T01:32:48;17.90;99.90
13610;DHT22;6876;50.788;4.940;2022-08-02T01:35:40;17.90;99.90
13610;DHT22;6876;50.788;4.940;2022-08-02T01:38:31;17.80;99.90
13610;DHT22;6876;50.788;4.940;2022-08-02T01:41:23;17.80;99.90
13610;DHT22;6876;50.788;4.940;2022-08-02T01:44:12;17.80;99.90
13610;DHT22;6876;50.788;4.940;2022-08-02T01:47:05;17.70;99.90
13610;DHT22;6876;50.788;4.940;2022-08-02T01:49:55;17.70;99.90
13610;DHT22;6876;50.788;4.940;2022-08-02T01:52:47;17.60;99.90
13610;DHT22;6876;50.788;4.940;2022-08-02T01:55:40;17.70;99.90
13610;DHT22;6876;50.788;4.940;2022-08-02T01:58:30;17.80;99.90
13610;DHT22;6876;50.788;4.940;2022-08-02T02:01:20;17.70;99.90
13610;DHT22;6876;50.788;4.940;2022-08-02T02:04:11;17.70;99.90
13610;DHT22;6876;50.788;4.940;2022-08-02T02:07:01;17.70;99.90
13610;DHT22;6876;50.788;4.940;2022-08-02T02:09:49;17.70;99.90
13610;DHT22;6876;50.788;4.940;2022-08-02T02:12:38;17.70;99.90
13610;DHT22;6876;50.788;4.940;2022-08-02T02:15:26;17.70;99.90
13610;DHT22;6876;50.788;4.940;2022-08-02T02:18:22;17.80;99.90
13610;DHT22;6876;50.788;4.940;2022-08-02T02:21:11;17.70;99.90
13610;DHT22;6876;50.788;4.940;2022-08-02T02:23:58;17.50;99.90
13610;DHT22;6876;50.788;4.940;2022-08-02T02:26:47;17.50;99.90
13610;DHT22;6876;50.788;4.940;2022-08-02T02:29:35;17.30;99.90
13610;DHT22;6876;50.788;4.940;2022-08-02T02:32:26;17.10;99.90
13610;DHT22;6876;50.788;4.940;2022-08-02T02:35:15;17.20;99.90
13610;DHT22;6876;50.788;4.940;2022-08-02T02:38:08;17.20;99.90
13610;DHT22;6876;50.788;4.940;2022-08-02T02:41:00;17.10;99.90
13610;DHT22;6876;50.788;4.940;2022-08-02T02:43:48;17.10;99.90
13610;DHT22;6876;50.788;4.940;2022-08-02T02:46:37;17.20;99.90
13610;DHT22;6876;50.788;4.940;2022-08-02T02:49:25;17.20;99.90
13610;DHT22;6876;50.788;4.940;2022-08-02T02:52:14;17.30;99.90
13610;DHT22;6876;50.788;4.940;2022-08-02T02:55:03;17.30;99.90
13610;DHT22;6876;50.788;4.940;2022-08-02T02:57:52;17.30;99.90
13610;DHT22;6876;50.788;4.940;2022-08-02T03:00:40;17.30;99.90
13610;DHT22;6876;50.788;4.940;2022-08-02T03:03:46;17.30;99.90
13610;DHT22;6876;50.788;4.940;2022-08-02T03:06:35;17.30;99.90
13610;DHT22;6876;50.788;4.940;2022-08-02T03:09:22;17.40;99.90
13610;DHT22;6876;50.788;4.940;2022-08-02T03:12:11;17.40;99.90
13610;DHT22;6876;50.788;4.940;2022-08-02T03:14:59;17.40;99.90
13610;DHT22;6876;50.788;4.940;2022-08-02T03:17:48;17.20;99.90
13610;DHT22;6876;50.788;4.940;2022-08-02T03:20:36;17.20;99.90
13610;DHT22;6876;50.788;4.940;2022-08-02T03:23:23;17.20;99.90
13610;DHT22;6876;50.788;4.940;2022-08-02T03:26:10;17.20;99.90
13610;DHT22;6876;50.788;4.940;2022-08-02T03:28:59;17.20;99.90
13610;DHT22;6876;50.788;4.940;2022-08-02T03:31:47;17.20;99.90
13610;DHT22;6876;50.788;4.940;2022-08-02T03:34:34;17.20;99.90
13610;DHT22;6876;50.788;4.940;2022-08-02T03:37:22;17.20;99.90
13610;DHT22;6876;50.788;4.940;2022-08-02T03:40:11;17.30;99.90
13610;DHT22;6876;50.788;4.940;2022-08-02T03:43:00;17.30;99.90
13610;DHT22;6876;50.788;4.940;2022-08-02T03:45:50;17.40;99.90
13610;DHT22;6876;50.788;4.940;2022-08-02T03:48:37;17.40;99.90
13610;DHT22;6876;50.788;4.940;2022-08-02T03:51:25;17.30;99.90
13610;DHT22;6876;50.788;4.940;2022-08-02T03:54:13;17.30;99.90
13610;DHT22;6876;50.788;4.940;2022-08-02T03:57:01;17.40;99.90
13610;DHT22;6876;50.788;4.940;2022-08-02T03:59:48;17.40;99.90
13610;DHT22;6876;50.788;4.940;2022-08-02T04:02:37;17.40;99.90
13610;DHT22;6876;50.788;4.940;2022-08-02T04:05:24;17.40;99.90
13610;DHT22;6876;50.788;4.940;2022-08-02T04:08:11;17.40;99.90
13610;DHT22;6876;50.788;4.940;2022-08-02T04:10:58;17.40;99.90
13610;DHT22;6876;50.788;4.940;2022-08-02T04:14:05;17.50;99.90
13610;DHT22;6876;50.788;4.940;2022-08-02T04:16:55;17.50;99.90
13610;DHT22;6876;50.788;4.940;2022-08-02T04:19:49;17.60;99.90
13610;DHT22;6876;50.788;4.940;2022-08-02T04:22:41;17.60;99.90
13610;DHT22;6876;50.788;4.940;2022-08-02T04:25:30;17.70;99.90
13610;DHT22;6876;50.788;4.940;2022-08-02T04:28:18;17.70;99.90
13610;DHT22;6876;50.788;4.940;2022-08-02T04:31:06;17.70;99.90
13610;DHT22;6876;50.788;4.940;2022-08-02T04:33:54;17.80;99.90
13610;DHT22;6876;50.788;4.940;2022-08-02T04:36:43;17.80;99.90
13610;DHT22;6876;50.788;4.940;2022-08-02T04:39:30;17.90;99.90
13610;DHT22;6876;50.788;4.940;2022-08-02T04:42:19;17.90;99.90
13610;DHT22;6876;50.788;4.940;2022-08-02T04:45:08;18.00;99.90
13610;DHT22;6876;50.788;4.940;2022-08-02T04:47:56;18.10;99.90
13610;DHT22;6876;50.788;4.940;2022-08-02T04:50:44;18.20;99.90
13610;DHT22;6876;50.788;4.940;2022-08-02T04:53:32;18.20;99.90
13610;DHT22;6876;50.788;4.940;2022-08-02T04:56:19;18.30;99.90
13610;DHT22;6876;50.788;4.940;2022-08-02T04:59:07;18.40;99.90
13610;DHT22;6876;50.788;4.940;2022-08-02T05:01:54;18.50;99.90
13610;DHT22;6876;50.788;4.940;2022-08-02T05:04:41;18.60;99.90
13610;DHT22;6876;50.788;4.940;2022-08-02T05:07:29;18.70;99.90
13610;DHT22;6876;50.788;4.940;2022-08-02T05:10:18;19.50;99.90
13610;DHT22;6876;50.788;4.940;2022-08-02T05:13:05;20.40;99.90
13610;DHT22;6876;50.788;4.940;2022-08-02T05:15:52;20.90;99.90
13610;DHT22;6876;50.788;4.940;2022-08-02T05:18:40;20.80;99.90
13610;DHT22;6876;50.788;4.940;2022-08-02T05:21:27;20.40;99.90
13610;DHT22;6876;50.788;4.940;2022-08-02T05:24:14;20.10;99.90
13610;DHT22;6876;50.788;4.940;2022-08-02T05:27:03;19.90;99.90
13610;DHT22;6876;50.788;4.940;2022-08-02T05:29:50;19.90;99.90
13610;DHT22;6876;50.788;4.940;2022-08-02T05:32:44;19.90;99.90
13610;DHT22;6876;50.788;4.940;2022-08-02T05:35:31;20.10;99.90
13610;DHT22;6876;50.788;4.940;2022-08-02T05:38:19;20.60;99.90
13610;DHT22;6876;50.788;4.940;2022-08-02T05:41:07;21.20;99.90
13610;DHT22;6876;50.788;4.940;2022-08-02T05:43:55;21.40;99.90
13610;DHT22;6876;50.788;4.940;2022-08-02T05:46:43;21.80;99.90
13610;DHT22;6876;50.788;4.940;2022-08-02T05:49:30;21.70;99.90
13610;DHT22;6876;50.788;4.940;2022-08-02T05:52:18;21.30;99.90
13610;DHT22;6876;50.788;4.940;2022-08-02T05:55:08;20.90;99.90
13610;DHT22;6876;50.788;4.940;2022-08-02T05:58:05;20.70;99.90
13610;DHT22;6876;50.788;4.940;2022-08-02T06:01:01;20.60;99.90
13610;DHT22;6876;50.788;4.940;2022-08-02T06:03:51;20.50;99.90
13610;DHT22;6876;50.788;4.940;2022-08-02T06:06:42;20.50;99.90
13610;DHT22;6876;50.788;4.940;2022-08-02T06:09:30;20.60;99.90
13610;DHT22;6876;50.788;4.940;2022-08-02T06:12:19;20.50;99.90
13610;DHT22;6876;50.788;4.940;2022-08-02T06:15:07;20.50;99.90
13610;DHT22;6876;50.788;4.940;2022-08-02T06:17:56;20.60;99.90
13610;DHT22;6876;50.788;4.940;2022-08-02T06:20:47;20.70;99.90
13610;DHT22;6876;50.788;4.940;2022-08-02T06:23:40;20.80;99.90
13610;DHT22;6876;50.788;4.940;2022-08-02T06:26:27;20.90;99.90
13610;DHT22;6876;50.788;4.940;2022-08-02T06:29:15;21.30;99.90
13610;DHT22;6876;50.788;4.940;2022-08-02T06:32:02;21.70;99.90
13610;DHT22;6876;50.788;4.940;2022-08-02T06:34:53;22.20;99.90
13610;DHT22;6876;50.788;4.940;2022-08-02T06:37:44;22.40;99.90
13610;DHT22;6876;50.788;4.940;2022-08-02T06:40:38;23.50;99.90
13610;DHT22;6876;50.788;4.940;2022-08-02T06:43:34;24.20;99.90
13610;DHT22;6876;50.788;4.940;2022-08-02T06:46:24;24.70;99.90
13610;DHT22;6876;50.788;4.940;2022-08-02T06:49:11;24.10;99.90
13610;DHT22;6876;50.788;4.940;2022-08-02T06:52:00;24.50;99.90
13610;DHT22;6876;50.788;4.940;2022-08-02T06:54:47;25.30;99.90
13610;DHT22;6876;50.788;4.940;2022-08-02T06:57:34;25.50;99.90
13610;DHT22;6876;50.788;4.940;2022-08-02T07:00:21;26.00;99.90
13610;DHT22;6876;50.788;4.940;2022-08-02T07:03:09;25.90;99.90
13610;DHT22;6876;50.788;4.940;2022-08-02T07:05:56;26.50;99.90
13610;DHT22;6876;50.788;4.940;2022-08-02T07:08:44;26.30;99.90
13610;DHT22;6876;50.788;4.940;2022-08-02T07:11:32;26.00;99.90
13610;DHT22;6876;50.788;4.940;2022-08-02T07:14:20;26.00;99.90
13610;DHT22;6876;50.788;4.940;2022-08-02T07:17:08;26.60;99.90
13610;DHT22;6876;50.788;4.940;2022-08-02T07:19:55;26.90;99.90
13610;DHT22;6876;50.788;4.940;2022-08-02T07:22:42;26.50;99.90
13610;DHT22;6876;50.788;4.940;2022-08-02T07:25:31;26.40;99.90
13610;DHT22;6876;50.788;4.940;2022-08-02T07:28:18;25.90;99.90
13610;DHT22;6876;50.788;4.940;2022-08-02T07:31:05;25.40;99.90
13610;DHT22;6876;50.788;4.940;2022-08-02T07:33:53;24.80;99.90
13610;DHT22;6876;50.788;4.940;2022-08-02T07:36:40;24.30;99.90
13610;DHT22;6876;50.788;4.940;2022-08-02T07:39:27;24.00;99.90
13610;DHT22;6876;50.788;4.940;2022-08-02T07:42:16;23.80;99.90
13610;DHT22;6876;50.788;4.940;2022-08-02T07:45:03;23.80;99.90
13610;DHT22;6876;50.788;4.940;2022-08-02T07:47:51;24.10;99.90
13610;DHT22;6876;50.788;4.940;2022-08-02T07:50:38;24.20;99.90
13610;DHT22;6876;50.788;4.940;2022-08-02T07:53:26;24.40;99.90
13610;DHT22;6876;50.788;4.940;2022-08-02T07:56:13;24.70;99.90
13610;DHT22;6876;50.788;4.940;2022-08-02T07:59:02;24.80;99.90
13610;DHT22;6876;50.788;4.940;2022-08-02T08:01:49;25.00;99.90
13610;DHT22;6876;50.788;4.940;2022-08-02T08:04:36;26.10;99.90
13610;DHT22;6876;50.788;4.940;2022-08-02T08:07:24;27.00;99.90
13610;DHT22;6876;50.788;4.940;2022-08-02T08:10:11;27.40;99.90
13610;DHT22;6876;50.788;4.940;2022-08-02T08:12:58;28.10;99.90
13610;DHT22;6876;50.788;4.940;2022-08-02T08:15:47;29.00;99.90
13610;DHT22;6876;50.788;4.940;2022-08-02T08:18:34;29.30;99.90
13610;DHT22;6876;50.788;4.940;2022-08-02T08:21:21;29.60;99.90
13610;DHT22;6876;50.788;4.940;2022-08-02T08:24:08;30.10;99.90
13610;DHT22;6876;50.788;4.940;2022-08-02T08:26:56;30.70;99.90
13610;DHT22;6876;50.788;4.940;2022-08-02T08:29:43;31.20;99.90
13610;DHT22;6876;50.788;4.940;2022-08-02T08:32:32;31.30;99.90
13610;DHT22;6876;50.788;4.940;2022-08-02T08:35:19;31.20;99.90
13610;DHT22;6876;50.788;4.940;2022-08-02T08:38:07;30.40;99.90
13610;DHT22;6876;50.788;4.940;2022-08-02T08:40:54;30.30;99.90
13610;DHT22;6876;50.788;4.940;2022-08-02T08:43:42;30.60;99.90
13610;DHT22;6876;50.788;4.940;2022-08-02T08:46:30;31.30;99.90
13610;DHT22;6876;50.788;4.940;2022-08-02T08:49:22;31.70;99.90
13610;DHT22;6876;50.788;4.940;2022-08-02T08:52:11;31.90;99.90
13610;DHT22;6876;50.788;4.940;2022-08-02T08:54:59;32.00;99.90
13610;DHT22;6876;50.788;4.940;2022-08-02T08:57:46;31.70;99.90
13610;DHT22;6876;50.788;4.940;2022-08-02T09:00:35;31.90;99.90
13610;DHT22;6876;50.788;4.940;2022-08-02T09:03:22;32.20;99.90
13610;DHT22;6876;50.788;4.940;2022-08-02T09:06:10;32.20;99.90
13610;DHT22;6876;50.788;4.940;2022-08-02T09:08:58;32.60;99.90
13610;DHT22;6876;50.788;4.940;2022-08-02T09:11:45;32.90;99.90
13610;DHT22;6876;50.788;4.940;2022-08-02T09:14:32;32.80;99.70
13610;DHT22;6876;50.788;4.940;2022-08-02T09:17:19;32.20;99.90
13610;DHT22;6876;50.788;4.940;2022-08-02T09:20:07;32.40;99.90
13610;DHT22;6876;50.788;4.940;2022-08-02T09:23:06;32.20;99.90
13610;DHT22;6876;50.788;4.940;2022-08-02T09:25:56;32.20;99.90
13610;DHT22;6876;50.788;4.940;2022-08-02T09:28:45;32.00;99.90
13610;DHT22;6876;50.788;4.940;2022-08-02T09:31:33;32.00;99.90
13610;DHT22;6876;50.788;4.940;2022-08-02T09:34:20;32.20;99.90
13610;DHT22;6876;50.788;4.940;2022-08-02T09:37:20;32.10;99.90
13610;DHT22;6876;50.788;4.940;2022-08-02T09:40:10;32.40;99.90
13610;DHT22;6876;50.788;4.940;2022-08-02T09:42:57;31.90;99.90
13610;DHT22;6876;50.788;4.940;2022-08-02T09:45:45;31.30;99.90
13610;DHT22;6876;50.788;4.940;2022-08-02T09:48:32;31.00;99.90
13610;DHT22;6876;50.788;4.940;2022-08-02T09:51:21;31.60;99.90
13610;DHT22;6876;50.788;4.940;2022-08-02T09:54:10;31.40;99.90
13610;DHT22;6876;50.788;4.940;2022-08-02T09:57:03;31.90;99.90
13610;DHT22;6876;50.788;4.940;2022-08-02T09:59:51;31.60;99.90
13610;DHT22;6876;50.788;4.940;2022-08-02T10:03:04;32.20;99.70
13610;DHT22;6876;50.788;4.940;2022-08-02T10:05:52;32.60;98.80
13610;DHT22;6876;50.788;4.940;2022-08-02T10:08:40;32.50;99.40
13610;DHT22;6876;50.788;4.940;2022-08-02T10:11:27;31.90;99.00
13610;DHT22;6876;50.788;4.940;2022-08-02T10:14:16;31.60;99.50
13610;DHT22;6876;50.788;4.940;2022-08-02T10:17:06;31.20;99.80
13610;DHT22;6876;50.788;4.940;2022-08-02T10:19:53;31.10;99.90
13610;DHT22;6876;50.788;4.940;2022-08-02T10:22:42;31.10;99.90
13610;DHT22;6876;50.788;4.940;2022-08-02T10:25:29;31.30;99.90
13610;DHT22;6876;50.788;4.940;2022-08-02T10:28:17;31.50;99.90
13610;DHT22;6876;50.788;4.940;2022-08-02T10:31:07;31.90;99.60
13610;DHT22;6876;50.788;4.940;2022-08-02T10:33:57;31.90;98.90
13610;DHT22;6876;50.788;4.940;2022-08-02T10:36:47;31.90;98.60
13610;DHT22;6876;50.788;4.940;2022-08-02T10:39:38;31.50;98.70
13610;DHT22;6876;50.788;4.940;2022-08-02T10:42:44;31.30;98.50
13610;DHT22;6876;50.788;4.940;2022-08-02T10:45:32;31.20;98.90
13610;DHT22;6876;50.788;4.940;2022-08-02T10:48:21;30.90;99.10
13610;DHT22;6876;50.788;4.940;2022-08-02T10:51:08;30.80;99.50
13610;DHT22;6876;50.788;4.940;2022-08-02T10:54:07;31.00;99.30
13610;DHT22;6876;50.788;4.940;2022-08-02T10:56:55;31.30;98.90
13610;DHT22;6876;50.788;4.940;2022-08-02T10:59:43;31.00;98.90
13610;DHT22;6876;50.788;4.940;2022-08-02T11:02:36;30.70;99.50
13610;DHT22;6876;50.788;4.940;2022-08-02T11:05:29;30.70;99.20
13610;DHT22;6876;50.788;4.940;2022-08-02T11:08:18;30.30;99.00
13610;DHT22;6876;50.788;4.940;2022-08-02T11:11:17;30.10;98.80
13610;DHT22;6876;50.788;4.940;2022-08-02T11:14:06;29.80;99.30
13610;DHT22;6876;50.788;4.940;2022-08-02T11:17:21;29.70;99.40
13610;DHT22;6876;50.788;4.940;2022-08-02T11:20:15;30.00;99.70
13610;DHT22;6876;50.788;4.940;2022-08-02T11:23:34;29.90;98.50
13610;DHT22;6876;50.788;4.940;2022-08-02T11:26:41;29.70;99.70
13610;DHT22;6876;50.788;4.940;2022-08-02T11:29:34;30.30;99.60
13610;DHT22;6876;50.788;4.940;2022-08-02T11:32:23;31.20;97.80
13610;DHT22;6876;50.788;4.940;2022-08-02T11:35:11;31.30;97.50
13610;DHT22;6876;50.788;4.940;2022-08-02T11:38:11;31.70;96.80
13610;DHT22;6876;50.788;4.940;2022-08-02T11:41:01;31.50;96.90
13610;DHT22;6876;50.788;4.940;2022-08-02T11:43:53;30.70;96.90
13610;DHT22;6876;50.788;4.940;2022-08-02T11:46:40;30.20;97.30
13610;DHT22;6876;50.788;4.940;2022-08-02T11:49:28;30.40;97.60
13610;DHT22;6876;50.788;4.940;2022-08-02T11:52:15;30.80;96.70
13610;DHT22;6876;50.788;4.940;2022-08-02T11:55:04;30.80;97.00
13610;DHT22;6876;50.788;4.940;2022-08-02T11:57:58;30.70;97.20
13610;DHT22;6876;50.788;4.940;2022-08-02T12:00:46;30.80;97.90
13610;DHT22;6876;50.788;4.940;2022-08-02T12:03:37;30.80;97.50
13610;DHT22;6876;50.788;4.940;2022-08-02T12:06:24;30.80;97.20
13610;DHT22;6876;50.788;4.940;2022-08-02T12:09:13;31.00;96.40
13610;DHT22;6876;50.788;4.940;2022-08-02T12:12:01;30.80;96.80
13610;DHT22;6876;50.788;4.940;2022-08-02T12:14:50;30.90;96.00
13610;DHT22;6876;50.788;4.940;2022-08-02T12:17:37;31.10;94.50
13610;DHT22;6876;50.788;4.940;2022-08-02T12:20:42;30.90;96.00
13610;DHT22;6876;50.788;4.940;2022-08-02T12:23:29;30.70;96.60
13610;DHT22;6876;50.788;4.940;2022-08-02T12:26:17;30.60;97.30
13610;DHT22;6876;50.788;4.940;2022-08-02T12:29:04;30.60;97.60
13610;DHT22;6876;50.788;4.940;2022-08-02T12:31:53;30.70;96.10
13610;DHT22;6876;50.788;4.940;2022-08-02T12:34:40;30.50;95.40
13610;DHT22;6876;50.788;4.940;2022-08-02T12:37:27;30.70;96.20
13610;DHT22;6876;50.788;4.940;2022-08-02T12:40:23;30.40;96.40
13610;DHT22;6876;50.788;4.940;2022-08-02T12:43:17;30.70;97.10
13610;DHT22;6876;50.788;4.940;2022-08-02T12:46:14;31.00;96.80
13610;DHT22;6876;50.788;4.940;2022-08-02T12:49:14;30.70;96.90
13610;DHT22;6876;50.788;4.940;2022-08-02T12:52:17;30.30;97.40
13610;DHT22;6876;50.788;4.940;2022-08-02T12:55:15;30.30;97.40
13610;DHT22;6876;50.788;4.940;2022-08-02T12:58:04;30.10;97.70
13610;DHT22;6876;50.788;4.940;2022-08-02T13:00:52;30.30;98.10
13610;DHT22;6876;50.788;4.940;2022-08-02T13:03:40;30.50;97.80
13610;DHT22;6876;50.788;4.940;2022-08-02T13:06:29;30.70;97.50
13610;DHT22;6876;50.788;4.940;2022-08-02T13:09:16;30.60;97.70
13610;DHT22;6876;50.788;4.940;2022-08-02T13:12:04;30.50;97.50
13610;DHT22;6876;50.788;4.940;2022-08-02T13:14:52;30.30;97.80
13610;DHT22;6876;50.788;4.940;2022-08-02T13:17:39;29.90;97.70
13610;DHT22;6876;50.788;4.940;2022-08-02T13:20:26;29.90;97.60
13610;DHT22;6876;50.788;4.940;2022-08-02T13:23:15;30.00;97.90
13610;DHT22;6876;50.788;4.940;2022-08-02T13:26:02;30.00;97.90
13610;DHT22;6876;50.788;4.940;2022-08-02T13:28:50;29.80;97.80
13610;DHT22;6876;50.788;4.940;2022-08-02T13:31:37;29.80;98.00
13610;DHT22;6876;50.788;4.940;2022-08-02T13:34:24;30.00;97.80
13610;DHT22;6876;50.788;4.940;2022-08-02T13:37:12;30.10;97.60
13610;DHT22;6876;50.788;4.940;2022-08-02T13:40:01;30.30;97.00
13610;DHT22;6876;50.788;4.940;2022-08-02T13:42:48;30.40;96.90
13610;DHT22;6876;50.788;4.940;2022-08-02T13:45:35;30.40;96.70
13610;DHT22;6876;50.788;4.940;2022-08-02T13:48:22;30.10;97.20
13610;DHT22;6876;50.788;4.940;2022-08-02T13:51:09;30.40;96.90
13610;DHT22;6876;50.788;4.940;2022-08-02T13:53:58;30.50;97.20
13610;DHT22;6876;50.788;4.940;2022-08-02T13:56:46;30.40;96.90
13610;DHT22;6876;50.788;4.940;2022-08-02T13:59:36;30.00;97.20
13610;DHT22;6876;50.788;4.940;2022-08-02T14:02:25;30.00;97.50
13610;DHT22;6876;50.788;4.940;2022-08-02T14:05:13;30.00;97.80
13610;DHT22;6876;50.788;4.940;2022-08-02T14:08:01;30.10;97.70
13610;DHT22;6876;50.788;4.940;2022-08-02T14:10:49;30.10;97.90
13610;DHT22;6876;50.788;4.940;2022-08-02T14:13:37;30.40;97.10
13610;DHT22;6876;50.788;4.940;2022-08-02T14:16:25;30.50;97.60
13610;DHT22;6876;50.788;4.940;2022-08-02T14:19:12;30.50;97.80
13610;DHT22;6876;50.788;4.940;2022-08-02T14:21:59;30.40;97.90
13610;DHT22;6876;50.788;4.940;2022-08-02T14:24:47;30.40;98.10
13610;DHT22;6876;50.788;4.940;2022-08-02T14:27:34;30.40;98.00
13610;DHT22;6876;50.788;4.940;2022-08-02T14:30:22;30.20;98.20
13610;DHT22;6876;50.788;4.940;2022-08-02T14:33:10;30.00;98.40
13610;DHT22;6876;50.788;4.940;2022-08-02T14:35:57;29.90;98.00
13610;DHT22;6876;50.788;4.940;2022-08-02T14:38:44;29.70;98.60
13610;DHT22;6876;50.788;4.940;2022-08-02T14:41:31;29.90;98.50
13610;DHT22;6876;50.788;4.940;2022-08-02T14:44:21;29.90;98.50
13610;DHT22;6876;50.788;4.940;2022-08-02T14:47:09;30.00;98.80
13610;DHT22;6876;50.788;4.940;2022-08-02T14:49:57;30.00;98.80
13610;DHT22;6876;50.788;4.940;2022-08-02T14:52:44;30.20;98.70
13610;DHT22;6876;50.788;4.940;2022-08-02T14:55:32;30.30;98.50
13610;DHT22;6876;50.788;4.940;2022-08-02T14:58:19;30.10;98.70
13610;DHT22;6876;50.788;4.940;2022-08-02T15:01:06;30.20;98.30
13610;DHT22;6876;50.788;4.940;2022-08-02T15:03:55;30.20;98.30
13610;DHT22;6876;50.788;4.940;2022-08-02T15:06:42;30.10;99.10
13610;DHT22;6876;50.788;4.940;2022-08-02T15:09:29;30.10;98.60
13610;DHT22;6876;50.788;4.940;2022-08-02T15:12:16;30.10;98.80
13610;DHT22;6876;50.788;4.940;2022-08-02T15:15:04;30.00;98.50
13610;DHT22;6876;50.788;4.940;2022-08-02T15:17:51;29.90;99.20
13610;DHT22;6876;50.788;4.940;2022-08-02T15:20:40;29.70;98.80
13610;DHT22;6876;50.788;4.940;2022-08-02T15:23:28;29.80;99.20
13610;DHT22;6876;50.788;4.940;2022-08-02T15:26:16;29.90;99.00
13610;DHT22;6876;50.788;4.940;2022-08-02T15:29:05;29.80;99.60
13610;DHT22;6876;50.788;4.940;2022-08-02T15:31:52;29.70;99.20
13610;DHT22;6876;50.788;4.940;2022-08-02T15:34:40;29.90;99.50
13610;DHT22;6876;50.788;4.940;2022-08-02T15:37:28;30.00;98.80
13610;DHT22;6876;50.788;4.940;2022-08-02T15:40:17;29.90;98.80
13610;DHT22;6876;50.788;4.940;2022-08-02T15:43:04;30.00;98.90
13610;DHT22;6876;50.788;4.940;2022-08-02T15:45:51;29.90;98.50
13610;DHT22;6876;50.788;4.940;2022-08-02T15:48:39;29.90;98.70
13610;DHT22;6876;50.788;4.940;2022-08-02T15:51:26;29.90;99.00
13610;DHT22;6876;50.788;4.940;2022-08-02T15:54:14;29.80;98.60
13610;DHT22;6876;50.788;4.940;2022-08-02T15:57:02;29.80;99.40
13610;DHT22;6876;50.788;4.940;2022-08-02T15:59:49;29.80;99.40
13610;DHT22;6876;50.788;4.940;2022-08-02T16:02:38;30.00;99.70
13610;DHT22;6876;50.788;4.940;2022-08-02T16:05:25;30.10;99.20
13610;DHT22;6876;50.788;4.940;2022-08-02T16:08:12;29.90;98.70
13610;DHT22;6876;50.788;4.940;2022-08-02T16:11:01;29.80;99.00
13610;DHT22;6876;50.788;4.940;2022-08-02T16:13:48;29.70;99.20
13610;DHT22;6876;50.788;4.940;2022-08-02T16:16:41;29.70;99.40
13610;DHT22;6876;50.788;4.940;2022-08-02T16:19:29;29.70;99.70
13610;DHT22;6876;50.788;4.940;2022-08-02T16:22:16;29.70;99.30
13610;DHT22;6876;50.788;4.940;2022-08-02T16:25:05;29.60;99.30
13610;DHT22;6876;50.788;4.940;2022-08-02T16:27:54;29.60;99.00
13610;DHT22;6876;50.788;4.940;2022-08-02T16:30:41;29.70;99.10
13610;DHT22;6876;50.788;4.940;2022-08-02T16:33:28;29.70;99.30
13610;DHT22;6876;50.788;4.940;2022-08-02T16:36:16;29.70;99.30
13610;DHT22;6876;50.788;4.940;2022-08-02T16:39:04;29.70;99.10
13610;DHT22;6876;50.788;4.940;2022-08-02T16:41:51;29.60;99.40
13610;DHT22;6876;50.788;4.940;2022-08-02T16:44:40;29.70;99.20
13610;DHT22;6876;50.788;4.940;2022-08-02T16:47:27;29.70;99.00
13610;DHT22;6876;50.788;4.940;2022-08-02T16:50:14;29.60;99.00
13610;DHT22;6876;50.788;4.940;2022-08-02T16:53:02;29.70;99.30
13610;DHT22;6876;50.788;4.940;2022-08-02T16:55:50;29.80;99.20
13610;DHT22;6876;50.788;4.940;2022-08-02T16:58:37;29.60;99.20
13610;DHT22;6876;50.788;4.940;2022-08-02T17:01:26;29.50;99.50
13610;DHT22;6876;50.788;4.940;2022-08-02T17:04:14;29.50;99.20
13610;DHT22;6876;50.788;4.940;2022-08-02T17:07:02;29.40;99.70
13610;DHT22;6876;50.788;4.940;2022-08-02T17:09:49;29.40;99.50
13610;DHT22;6876;50.788;4.940;2022-08-02T17:12:37;29.40;99.90
13610;DHT22;6876;50.788;4.940;2022-08-02T17:15:24;29.40;99.70
13610;DHT22;6876;50.788;4.940;2022-08-02T17:18:13;29.40;99.70
13610;DHT22;6876;50.788;4.940;2022-08-02T17:21:00;29.40;99.90
13610;DHT22;6876;50.788;4.940;2022-08-02T17:23:48;29.40;99.70
13610;DHT22;6876;50.788;4.940;2022-08-02T17:26:36;29.30;99.90
13610;DHT22;6876;50.788;4.940;2022-08-02T17:29:24;29.30;99.80
13610;DHT22;6876;50.788;4.940;2022-08-02T17:32:11;29.20;99.90
13610;DHT22;6876;50.788;4.940;2022-08-02T17:35:00;29.20;99.90
13610;DHT22;6876;50.788;4.940;2022-08-02T17:37:48;29.20;99.90
13610;DHT22;6876;50.788;4.940;2022-08-02T17:40:35;29.20;99.90
13610;DHT22;6876;50.788;4.940;2022-08-02T17:43:23;29.10;99.90
13610;DHT22;6876;50.788;4.940;2022-08-02T17:46:10;29.10;99.90
13610;DHT22;6876;50.788;4.940;2022-08-02T17:48:57;29.10;99.90
13610;DHT22;6876;50.788;4.940;2022-08-02T17:52:06;29.10;99.90
13610;DHT22;6876;50.788;4.940;2022-08-02T17:54:54;29.00;99.90
13610;DHT22;6876;50.788;4.940;2022-08-02T17:57:41;29.00;99.90
13610;DHT22;6876;50.788;4.940;2022-08-02T18:00:32;28.80;99.90
13610;DHT22;6876;50.788;4.940;2022-08-02T18:03:20;28.70;99.90
13610;DHT22;6876;50.788;4.940;2022-08-02T18:06:07;28.60;99.90